Time;durP1;ratioP1;P1;durP2;ratioP2;P2;SDS_P1;SDS_P2;PMS_P1;PMS_P2;Temp;Humidity;BMP_temperature;BMP_pressure;BME280_temperature;BME280_humidity;BME280_pressure;Samples;Min_cycle;Max_cycle;Signal;HPM_P1;HPM_P2
2022/11/03 00:00:31;;;;;;;162.80;23.23;;;;;;;;;;742021;189;859784;-66
2022/11/03 00:02:57;;;;;;;39.77;17.60;;;;;;;;;;738607;189;919184;-67
2022/11/03 00:07:54;;;;;;;76.40;20.13;;;;;;;;;;736444;189;918581;-65
2022/11/03 00:10:20;;;;;;;59.60;18.70;;;;;;;;;;736776;191;918392;-67
2022/11/03 00:12:46;;;;;;;162.97;21.60;;;;;;;;;;739212;189;919664;-66
2022/11/03 00:15:12;;;;;;;150.50;21.67;;;;;;;;;;740959;189;921355;-67
2022/11/03 00:17:38;;;;;;;101.07;20.90;;;;;;;;;;740665;189;920085;-66
2022/11/03 00:20:04;;;;;;;172.93;23.33;;;;;;;;;;737429;189;916089;-66
2022/11/03 00:22:32;;;;;;;276.67;29.00;;;;;;;;;;738214;189;816580;-67
2022/11/03 00:24:55;;;;;;;108.40;20.77;;;;;;;;;;741667;189;816910;-66
2022/11/03 00:27:21;;;;;;;206.47;23.10;;;;;;;;;;739893;187;919411;-67
2022/11/03 00:29:47;;;;;;;315.13;28.13;;;;;;;;;;738716;189;919228;-67
2022/11/03 00:32:14;;;;;;;266.63;28.17;;;;;;;;;;739581;189;919166;-66
2022/11/03 00:34:40;;;;;;;154.20;22.30;;;;;;;;;;738686;188;838052;-67
2022/11/03 00:37:05;;;;;;;190.98;22.15;;;;;;;;;;737582;189;919585;-66
2022/11/03 00:39:31;;;;;;;210.80;24.07;;;;;;;;;;740621;189;917456;-65
2022/11/03 00:41:57;;;;;;;70.43;18.30;;;;;;;;;;742899;189;918803;-66
2022/11/03 00:44:23;;;;;;;147.60;19.37;;;;;;;;;;737272;187;919034;-66
2022/11/03 00:46:49;;;;;;;136.53;24.23;;;;;;;;;;742269;188;918560;-66
2022/11/03 00:49:15;;;;;;;62.53;16.60;;;;;;;;;;743010;188;892535;-66
2022/11/03 00:51:41;;;;;;;124.83;20.53;;;;;;;;;;737625;189;919641;-66
2022/11/03 00:54:07;;;;;;;103.83;19.20;;;;;;;;;;736824;189;938757;-66
2022/11/03 00:56:33;;;;;;;107.60;20.85;;;;;;;;;;736659;190;920152;-66
2022/11/03 00:58:59;;;;;;;141.53;20.40;;;;;;;;;;741610;188;918797;-66
2022/11/03 01:01:40;;;;;;;148.40;20.67;;;;;;;;;;741207;189;900831;-66
2022/11/03 01:09:09;;;;;;;100.83;18.10;;;;;;;;;;742422;190;865608;-68
2022/11/03 01:14:07;;;;;;;79.00;19.40;;;;;;;;;;737394;189;918809;-66
2022/11/03 01:16:32;;;;;;;76.10;18.80;;;;;;;;;;731838;189;936456;-67
2022/11/03 01:18:58;;;;;;;45.30;16.83;;;;;;;;;;743257;189;918702;-66
2022/11/03 01:21:24;;;;;;;100.22;18.15;;;;;;;;;;735636;190;916131;-67
2022/11/03 01:23:50;;;;;;;68.33;16.30;;;;;;;;;;737315;188;916311;-67
2022/11/03 01:26:16;;;;;;;76.50;19.10;;;;;;;;;;747357;189;886221;-67
2022/11/03 01:28:42;;;;;;;50.95;16.35;;;;;;;;;;740174;189;917025;-67
2022/11/03 01:31:07;;;;;;;46.77;15.83;;;;;;;;;;735596;189;917829;-67
2022/11/03 01:33:33;;;;;;;44.47;16.27;;;;;;;;;;737215;189;918710;-66
2022/11/03 01:35:59;;;;;;;45.00;16.50;;;;;;;;;;741715;186;918627;-67
2022/11/03 01:38:25;;;;;;;58.23;16.87;;;;;;;;;;736151;190;918628;-68
2022/11/03 01:40:51;;;;;;;43.25;15.85;;;;;;;;;;733987;190;818370;-66
2022/11/03 01:43:17;;;;;;;47.90;16.27;;;;;;;;;;745712;187;919193;-66
2022/11/03 01:45:42;;;;;;;44.00;15.47;;;;;;;;;;739571;188;1123430;-66
2022/11/03 01:48:08;;;;;;;35.70;16.20;;;;;;;;;;738718;189;1020817;-67
2022/11/03 01:50:34;;;;;;;29.00;15.30;;;;;;;;;;745714;187;918935;-67
2022/11/03 01:53:00;;;;;;;43.50;15.50;;;;;;;;;;738286;188;919098;-66
2022/11/03 01:55:26;;;;;;;36.23;17.17;;;;;;;;;;735461;189;922110;-67
2022/11/03 01:57:52;;;;;;;33.40;15.37;;;;;;;;;;739109;189;905535;-67
2022/11/03 02:00:18;;;;;;;55.60;16.90;;;;;;;;;;743416;188;918830;-67
2022/11/03 02:02:43;;;;;;;49.33;18.13;;;;;;;;;;738210;187;919217;-67
2022/11/03 02:05:09;;;;;;;61.93;18.73;;;;;;;;;;737630;189;923366;-67
2022/11/03 02:07:36;;;;;;;64.77;17.63;;;;;;;;;;741411;189;941772;-67
2022/11/03 02:10:02;;;;;;;62.45;19.55;;;;;;;;;;740483;185;918617;-67
2022/11/03 02:12:28;;;;;;;79.23;20.70;;;;;;;;;;737113;189;863638;-67
2022/11/03 02:14:54;;;;;;;93.70;20.88;;;;;;;;;;741228;189;906538;-67
2022/11/03 02:17:20;;;;;;;72.13;20.37;;;;;;;;;;734458;188;917844;-68
2022/11/03 02:19:47;;;;;;;239.13;30.17;;;;;;;;;;732972;189;920104;-66
2022/11/03 02:22:18;;;;;;;266.70;30.30;;;;;;;;;;734992;189;919160;-67
2022/11/03 02:24:44;;;;;;;99.00;21.93;;;;;;;;;;743817;187;919865;-67
2022/11/03 02:27:10;;;;;;;95.93;22.33;;;;;;;;;;739566;188;919179;-67
2022/11/03 02:29:36;;;;;;;99.90;22.57;;;;;;;;;;740336;187;919502;-67
2022/11/03 02:32:04;;;;;;;73.90;21.77;;;;;;;;;;738943;189;918831;-66
2022/11/03 02:34:31;;;;;;;88.80;21.47;;;;;;;;;;738124;188;919453;-67
2022/11/03 02:36:58;;;;;;;105.57;20.80;;;;;;;;;;736480;189;944627;-67
2022/11/03 02:39:25;;;;;;;76.23;20.20;;;;;;;;;;736012;189;917858;-67
2022/11/03 02:41:50;;;;;;;87.70;19.87;;;;;;;;;;740462;189;920275;-68
2022/11/03 02:44:16;;;;;;;96.73;19.17;;;;;;;;;;734270;189;917124;-67
2022/11/03 02:46:42;;;;;;;154.93;21.80;;;;;;;;;;736264;189;817545;-67
2022/11/03 02:49:08;;;;;;;168.57;24.53;;;;;;;;;;740725;189;916710;-67
2022/11/03 02:51:34;;;;;;;60.90;19.70;;;;;;;;;;734724;189;939394;-68
2022/11/03 02:54:03;;;;;;;187.40;24.57;;;;;;;;;;737030;189;818194;-67
2022/11/03 02:56:28;;;;;;;119.30;22.77;;;;;;;;;;735151;189;914964;-67
2022/11/03 02:58:58;;;;;;;106.23;19.77;;;;;;;;;;743379;187;815250;-67
2022/11/03 03:01:26;;;;;;;287.43;28.57;;;;;;;;;;741677;189;630190;-67
2022/11/03 03:03:51;;;;;;;74.87;20.60;;;;;;;;;;735454;189;1019115;-67
2022/11/03 03:06:20;;;;;;;107.00;21.50;;;;;;;;;;741999;187;768927;-67
2022/11/03 03:08:46;;;;;;;135.57;20.17;;;;;;;;;;743144;189;919422;-67
2022/11/03 03:11:12;;;;;;;186.97;22.80;;;;;;;;;;735850;189;936085;-67
2022/11/03 03:13:38;;;;;;;112.33;22.47;;;;;;;;;;735023;189;915958;-67
2022/11/03 03:16:06;;;;;;;137.33;21.47;;;;;;;;;;748069;188;616373;-67
2022/11/03 03:18:35;;;;;;;125.17;17.87;;;;;;;;;;742804;188;637707;-67
2022/11/03 03:21:01;;;;;;;92.73;18.03;;;;;;;;;;737580;189;816916;-68
2022/11/03 03:23:27;;;;;;;92.83;17.53;;;;;;;;;;741066;189;919192;-67
2022/11/03 03:25:53;;;;;;;72.43;14.90;;;;;;;;;;739583;188;818949;-67
2022/11/03 03:28:19;;;;;;;52.67;12.33;;;;;;;;;;738114;189;817773;-68
2022/11/03 03:30:44;;;;;;;132.95;19.98;;;;;;;;;;733005;189;1010918;-67
2022/11/03 03:33:10;;;;;;;88.73;17.40;;;;;;;;;;739913;188;918367;-67
2022/11/03 03:35:36;;;;;;;188.30;19.95;;;;;;;;;;737129;188;919203;-68
2022/11/03 03:38:02;;;;;;;56.67;16.00;;;;;;;;;;736068;189;918711;-67
2022/11/03 03:40:28;;;;;;;301.33;25.70;;;;;;;;;;741740;186;918956;-67
2022/11/03 03:42:54;;;;;;;164.27;19.20;;;;;;;;;;738296;189;919407;-67
2022/11/03 03:45:19;;;;;;;274.33;24.08;;;;;;;;;;737835;188;917169;-67
2022/11/03 03:47:45;;;;;;;45.23;13.80;;;;;;;;;;740375;189;918888;-67
2022/11/03 03:50:11;;;;;;;254.70;23.17;;;;;;;;;;735293;189;910759;-67
2022/11/03 03:52:37;;;;;;;105.57;17.20;;;;;;;;;;735411;189;919082;-68
2022/11/03 03:55:03;;;;;;;120.23;21.30;;;;;;;;;;740089;189;919686;-67
2022/11/03 03:57:29;;;;;;;200.47;22.83;;;;;;;;;;743642;189;817223;-67
2022/11/03 03:59:55;;;;;;;211.57;23.67;;;;;;;;;;737685;188;911960;-68
2022/11/03 04:02:21;;;;;;;251.70;24.20;;;;;;;;;;736083;189;918284;-67
2022/11/03 04:04:47;;;;;;;160.97;17.47;;;;;;;;;;742046;189;714306;-67
2022/11/03 04:09:44;;;;;;;96.07;15.40;;;;;;;;;;737122;189;914987;-67
2022/11/03 04:22:17;;;;;;;29.52;12.63;;;;;;;;;;738174;189;816769;-68
2022/11/03 04:24:43;;;;;;;78.73;14.33;;;;;;;;;;741220;189;918793;-68
2022/11/03 04:27:24;;;;;;;56.77;10.47;;;;;;;;;;735847;189;919099;-68
2022/11/03 04:29:50;;;;;;;119.60;14.17;;;;;;;;;;740137;187;919472;-68
2022/11/03 04:32:16;;;;;;;105.73;13.97;;;;;;;;;;738296;187;922270;-68
2022/11/03 04:34:42;;;;;;;37.70;10.87;;;;;;;;;;744954;189;918023;-67
2022/11/03 04:37:08;;;;;;;37.80;12.70;;;;;;;;;;737409;188;922064;-67
2022/11/03 04:39:34;;;;;;;55.10;12.00;;;;;;;;;;734567;189;920166;-67
2022/11/03 04:42:00;;;;;;;140.27;15.70;;;;;;;;;;736169;189;911407;-67
2022/11/03 04:44:26;;;;;;;73.50;11.90;;;;;;;;;;738566;189;919674;-69
2022/11/03 04:46:52;;;;;;;84.03;16.43;;;;;;;;;;736384;189;922878;-68
2022/11/03 04:49:18;;;;;;;99.13;13.82;;;;;;;;;;735227;189;917293;-66
2022/11/03 04:51:43;;;;;;;90.43;12.57;;;;;;;;;;739372;189;918749;-67
2022/11/03 04:54:12;;;;;;;84.47;14.43;;;;;;;;;;736108;189;907780;-68
2022/11/03 04:56:38;;;;;;;149.50;19.73;;;;;;;;;;734723;189;946581;-67
2022/11/03 04:59:04;;;;;;;60.83;13.05;;;;;;;;;;737135;189;814581;-66
2022/11/03 05:01:30;;;;;;;155.00;16.30;;;;;;;;;;738669;189;870764;-67
2022/11/03 05:03:56;;;;;;;113.83;16.37;;;;;;;;;;737072;188;922430;-67
2022/11/03 05:06:22;;;;;;;43.90;9.60;;;;;;;;;;737807;189;817799;-67
2022/11/03 05:08:47;;;;;;;170.33;29.13;;;;;;;;;;742293;189;910294;-67
2022/11/03 05:11:14;;;;;;;103.00;30.62;;;;;;;;;;737336;186;919113;-67
2022/11/03 05:13:40;;;;;;;38.57;12.67;;;;;;;;;;734850;189;915097;-66
2022/11/03 05:16:06;;;;;;;57.97;12.83;;;;;;;;;;741912;189;813635;-67
2022/11/03 05:18:32;;;;;;;60.67;10.37;;;;;;;;;;740058;189;626474;-67
2022/11/03 05:20:59;;;;;;;45.60;12.70;;;;;;;;;;744892;188;636710;-68
2022/11/03 05:23:25;;;;;;;122.87;17.27;;;;;;;;;;743003;187;798137;-69
2022/11/03 05:25:50;;;;;;;36.90;13.30;;;;;;;;;;746569;189;632945;-68
2022/11/03 05:28:32;;;;;;;23.60;9.77;;;;;;;;;;740162;187;900217;-68
2022/11/03 05:30:58;;;;;;;31.00;11.77;;;;;;;;;;736621;188;918168;-67
2022/11/03 05:33:25;;;;;;;32.07;10.50;;;;;;;;;;736918;189;1020688;-69
2022/11/03 05:35:51;;;;;;;130.43;14.10;;;;;;;;;;742607;189;814342;-68
2022/11/03 05:38:17;;;;;;;51.40;10.70;;;;;;;;;;738739;189;917993;-67
2022/11/03 05:40:43;;;;;;;62.43;13.67;;;;;;;;;;736569;189;918052;-67
2022/11/03 05:43:08;;;;;;;141.30;16.40;;;;;;;;;;740692;189;913410;-67
2022/11/03 05:45:34;;;;;;;72.50;12.90;;;;;;;;;;738872;188;844151;-67
2022/11/03 05:48:00;;;;;;;63.37;12.53;;;;;;;;;;739661;188;790226;-68
2022/11/03 05:50:26;;;;;;;37.20;10.80;;;;;;;;;;740000;188;921254;-68
2022/11/03 05:52:54;;;;;;;163.20;18.37;;;;;;;;;;730481;190;815584;-69
2022/11/03 05:55:20;;;;;;;223.27;26.07;;;;;;;;;;737907;189;815500;-69
2022/11/03 05:57:46;;;;;;;44.23;11.37;;;;;;;;;;737836;189;815810;-68
2022/11/03 06:00:22;;;;;;;52.23;10.00;;;;;;;;;;740374;188;913008;-66
2022/11/03 06:02:47;;;;;;;87.77;14.43;;;;;;;;;;730416;189;917563;-68
2022/11/03 06:05:17;;;;;;;259.23;31.40;;;;;;;;;;736388;189;918776;-67
2022/11/03 06:07:43;;;;;;;124.40;28.98;;;;;;;;;;734844;189;914646;-68
2022/11/03 06:10:15;;;;;;;280.13;24.50;;;;;;;;;;738978;189;922018;-67
2022/11/03 06:12:41;;;;;;;84.07;13.53;;;;;;;;;;739522;189;918987;-67
2022/11/03 06:15:07;;;;;;;95.13;15.17;;;;;;;;;;735977;189;918467;-67
2022/11/03 06:17:32;;;;;;;39.70;19.83;;;;;;;;;;736657;189;919489;-67
2022/11/03 06:19:58;;;;;;;137.93;18.40;;;;;;;;;;739698;189;920222;-67
2022/11/03 06:22:27;;;;;;;69.03;11.60;;;;;;;;;;736457;190;920058;-67
2022/11/03 06:24:54;;;;;;;72.10;11.87;;;;;;;;;;737476;189;915920;-67
2022/11/03 06:27:19;;;;;;;36.00;9.67;;;;;;;;;;745363;189;915179;-67
2022/11/03 06:29:45;;;;;;;80.40;11.13;;;;;;;;;;738374;189;817722;-67
2022/11/03 06:32:12;;;;;;;21.02;8.27;;;;;;;;;;737734;189;919187;-67
2022/11/03 06:34:46;;;;;;;25.90;8.40;;;;;;;;;;738141;189;914799;-67
2022/11/03 06:37:15;;;;;;;43.80;9.43;;;;;;;;;;750905;184;922137;-67
2022/11/03 06:39:41;;;;;;;115.47;13.33;;;;;;;;;;736060;189;817956;-67
2022/11/03 06:42:07;;;;;;;26.95;8.60;;;;;;;;;;737012;189;918447;-68
2022/11/03 06:44:33;;;;;;;14.40;6.63;;;;;;;;;;739299;189;918193;-68
2022/11/03 06:46:59;;;;;;;25.33;8.23;;;;;;;;;;753254;185;803969;-68
2022/11/03 06:49:29;;;;;;;216.17;19.30;;;;;;;;;;738526;187;917824;-68
2022/11/03 06:51:55;;;;;;;41.70;9.97;;;;;;;;;;742912;188;918987;-67
2022/11/03 06:54:20;;;;;;;36.47;8.50;;;;;;;;;;741571;189;815719;-67
2022/11/03 06:56:46;;;;;;;86.03;10.53;;;;;;;;;;736814;189;917131;-68
2022/11/03 06:59:13;;;;;;;161.47;15.23;;;;;;;;;;741082;187;914847;-68
2022/11/03 07:01:38;;;;;;;72.77;11.10;;;;;;;;;;740856;188;921159;-68
2022/11/03 07:04:08;;;;;;;31.37;7.03;;;;;;;;;;741354;187;821958;-67
2022/11/03 07:06:34;;;;;;;98.67;12.40;;;;;;;;;;735033;189;919091;-69
2022/11/03 07:09:00;;;;;;;49.00;9.03;;;;;;;;;;735678;189;919833;-68
2022/11/03 07:11:27;;;;;;;23.37;6.07;;;;;;;;;;740422;186;918718;-69
2022/11/03 07:13:56;;;;;;;57.47;8.83;;;;;;;;;;735495;190;918427;-68
2022/11/03 07:16:28;;;;;;;19.50;6.80;;;;;;;;;;735926;189;919124;-68
2022/11/03 07:18:54;;;;;;;135.00;13.13;;;;;;;;;;735306;189;918914;-69
2022/11/03 07:21:20;;;;;;;87.10;11.60;;;;;;;;;;742562;189;918482;-68
2022/11/03 07:23:46;;;;;;;43.40;7.90;;;;;;;;;;737974;189;916375;-68
2022/11/03 07:26:12;;;;;;;103.87;31.47;;;;;;;;;;741202;189;917745;-68
2022/11/03 07:28:38;;;;;;;142.23;24.50;;;;;;;;;;740083;189;818283;-68
2022/11/03 07:31:11;;;;;;;107.40;18.73;;;;;;;;;;736705;189;846550;-69
2022/11/03 07:33:37;;;;;;;116.97;14.80;;;;;;;;;;738006;189;919694;-69
2022/11/03 07:36:03;;;;;;;226.97;19.47;;;;;;;;;;734841;188;920680;-70
2022/11/03 07:38:29;;;;;;;52.03;13.60;;;;;;;;;;739569;189;1002877;-68
2022/11/03 07:40:56;;;;;;;91.63;17.40;;;;;;;;;;736276;189;918609;-69
2022/11/03 07:43:22;;;;;;;80.63;16.70;;;;;;;;;;736506;189;909852;-68
2022/11/03 07:45:48;;;;;;;66.03;21.50;;;;;;;;;;741436;189;918903;-69
2022/11/03 07:48:19;;;;;;;67.13;16.27;;;;;;;;;;737792;187;915691;-69
2022/11/03 07:50:44;;;;;;;93.67;13.37;;;;;;;;;;734435;189;901457;-68
2022/11/03 07:53:12;;;;;;;43.93;12.70;;;;;;;;;;737290;188;917037;-69
2022/11/03 07:55:37;;;;;;;28.50;7.73;;;;;;;;;;744014;188;919031;-68
2022/11/03 07:58:05;;;;;;;51.60;9.57;;;;;;;;;;735620;188;931969;-68
2022/11/03 08:00:31;;;;;;;36.03;10.30;;;;;;;;;;735348;189;918350;-70
2022/11/03 08:02:57;;;;;;;47.93;10.10;;;;;;;;;;736329;189;918564;-69
2022/11/03 08:05:23;;;;;;;36.90;7.47;;;;;;;;;;742528;188;918978;-69
2022/11/03 08:07:49;;;;;;;37.87;9.60;;;;;;;;;;740153;187;917779;-69
2022/11/03 08:10:15;;;;;;;17.67;7.87;;;;;;;;;;738247;188;918589;-69
2022/11/03 08:12:41;;;;;;;18.12;8.05;;;;;;;;;;743717;189;918888;-69
2022/11/03 08:15:07;;;;;;;16.13;8.63;;;;;;;;;;737564;189;918826;-69
2022/11/03 08:17:33;;;;;;;11.43;7.50;;;;;;;;;;738123;189;815640;-67
2022/11/03 08:19:59;;;;;;;15.40;7.60;;;;;;;;;;743051;187;909353;-69
2022/11/03 08:22:24;;;;;;;12.13;7.60;;;;;;;;;;735518;188;917990;-69
2022/11/03 08:24:50;;;;;;;12.60;8.87;;;;;;;;;;735242;189;1019239;-68
2022/11/03 08:27:16;;;;;;;15.30;8.90;;;;;;;;;;741552;189;923482;-69
2022/11/03 08:29:42;;;;;;;12.10;8.23;;;;;;;;;;735596;189;919545;-69
2022/11/03 08:32:08;;;;;;;13.00;7.97;;;;;;;;;;736339;189;906763;-69
2022/11/03 08:34:34;;;;;;;11.27;8.40;;;;;;;;;;735831;189;919145;-69
2022/11/03 08:37:02;;;;;;;13.07;8.10;;;;;;;;;;740387;189;921330;-69
2022/11/03 08:39:30;;;;;;;10.40;7.07;;;;;;;;;;735626;189;917692;-69
2022/11/03 08:41:54;;;;;;;12.37;8.93;;;;;;;;;;738376;189;922153;-68
2022/11/03 08:44:20;;;;;;;10.02;7.15;;;;;;;;;;741883;189;805538;-69
2022/11/03 08:46:46;;;;;;;10.13;7.10;;;;;;;;;;735535;189;918413;-68
2022/11/03 08:49:11;;;;;;;12.00;7.60;;;;;;;;;;735436;189;918418;-69
2022/11/03 08:51:37;;;;;;;15.37;8.37;;;;;;;;;;740948;189;919095;-69
2022/11/03 08:54:04;;;;;;;10.03;7.40;;;;;;;;;;734802;189;964519;-69
2022/11/03 08:56:30;;;;;;;14.77;8.97;;;;;;;;;;736805;189;917951;-70
2022/11/03 08:58:56;;;;;;;39.97;20.62;;;;;;;;;;737146;187;917694;-70
2022/11/03 09:01:22;;;;;;;15.87;10.10;;;;;;;;;;744015;187;918866;-69
2022/11/03 09:03:49;;;;;;;15.97;8.80;;;;;;;;;;735956;189;919286;-70
2022/11/03 09:06:15;;;;;;;21.03;9.60;;;;;;;;;;739255;189;922401;-69
2022/11/03 09:08:41;;;;;;;23.77;12.70;;;;;;;;;;740252;189;918783;-70
2022/11/03 09:11:07;;;;;;;14.53;8.63;;;;;;;;;;736633;189;919352;-69
2022/11/03 09:13:33;;;;;;;45.90;21.27;;;;;;;;;;736784;189;920622;-69
2022/11/03 09:16:00;;;;;;;12.70;8.60;;;;;;;;;;740028;188;919315;-70
2022/11/03 09:18:27;;;;;;;18.13;9.90;;;;;;;;;;747573;188;918820;-69
2022/11/03 09:20:53;;;;;;;9.90;7.17;;;;;;;;;;738734;185;919336;-69
2022/11/03 09:23:20;;;;;;;14.40;8.23;;;;;;;;;;736691;189;917992;-70
2022/11/03 09:25:46;;;;;;;14.10;8.93;;;;;;;;;;741666;189;918879;-69
2022/11/03 09:28:12;;;;;;;10.60;7.87;;;;;;;;;;736151;189;918189;-69
2022/11/03 09:30:38;;;;;;;14.73;8.23;;;;;;;;;;741590;188;911921;-69
2022/11/03 09:33:04;;;;;;;11.67;7.53;;;;;;;;;;748409;189;813464;-69
2022/11/03 09:35:30;;;;;;;12.27;7.30;;;;;;;;;;735439;189;920339;-68
2022/11/03 09:37:56;;;;;;;12.90;6.80;;;;;;;;;;740024;188;918232;-69
2022/11/03 09:40:24;;;;;;;16.57;9.20;;;;;;;;;;741493;188;915878;-68
2022/11/03 09:42:48;;;;;;;10.70;7.07;;;;;;;;;;742082;189;918990;-68
2022/11/03 09:45:14;;;;;;;14.17;7.70;;;;;;;;;;738181;189;919182;-69
2022/11/03 09:47:44;;;;;;;12.53;7.07;;;;;;;;;;734634;189;916029;-68
2022/11/03 09:50:12;;;;;;;41.30;24.70;;;;;;;;;;740446;189;917920;-70
2022/11/03 09:52:38;;;;;;;19.23;12.00;;;;;;;;;;735174;189;885943;-69
2022/11/03 09:55:04;;;;;;;12.37;7.47;;;;;;;;;;730471;189;919746;-70
2022/11/03 09:57:30;;;;;;;19.43;6.27;;;;;;;;;;736340;189;914942;-69
2022/11/03 09:59:56;;;;;;;15.40;9.50;;;;;;;;;;735150;189;916604;-70
2022/11/03 10:02:25;;;;;;;10.50;7.70;;;;;;;;;;732944;190;916236;-69
2022/11/03 10:04:51;;;;;;;13.75;8.32;;;;;;;;;;739121;187;915708;-71
2022/11/03 10:07:17;;;;;;;10.27;7.50;;;;;;;;;;746067;187;893625;-70
2022/11/03 10:09:44;;;;;;;16.63;7.37;;;;;;;;;;742091;188;817982;-70
2022/11/03 10:12:09;;;;;;;10.03;7.90;;;;;;;;;;735883;189;919027;-70
2022/11/03 10:14:36;;;;;;;10.73;6.43;;;;;;;;;;742385;189;876769;-69
2022/11/03 10:17:03;;;;;;;20.73;12.57;;;;;;;;;;737882;188;918430;-70
2022/11/03 10:19:29;;;;;;;52.67;27.73;;;;;;;;;;733965;189;906168;-71
2022/11/03 10:21:54;;;;;;;17.50;11.43;;;;;;;;;;742993;189;921034;-69
2022/11/03 10:24:21;;;;;;;25.27;14.87;;;;;;;;;;747788;189;916031;-70
2022/11/03 10:26:47;;;;;;;21.37;14.43;;;;;;;;;;737699;189;1021927;-69
2022/11/03 10:29:18;;;;;;;33.33;25.47;;;;;;;;;;739632;188;936357;-69
2022/11/03 10:31:48;;;;;;;24.63;18.87;;;;;;;;;;736941;189;919522;-69
2022/11/03 10:34:16;;;;;;;14.67;8.30;;;;;;;;;;740671;187;919666;-69
2022/11/03 10:36:42;;;;;;;12.57;5.87;;;;;;;;;;740468;189;940212;-70
2022/11/03 10:39:14;;;;;;;8.67;5.90;;;;;;;;;;738418;189;919453;-69
2022/11/03 10:41:39;;;;;;;9.90;6.10;;;;;;;;;;736943;189;920673;-70
2022/11/03 10:44:18;;;;;;;9.70;4.70;;;;;;;;;;749387;185;861955;-69
2022/11/03 10:46:50;;;;;;;8.73;4.57;;;;;;;;;;732188;189;919452;-70
2022/11/03 10:49:17;;;;;;;9.23;4.60;;;;;;;;;;737731;189;920454;-69
2022/11/03 10:51:42;;;;;;;12.00;6.90;;;;;;;;;;736832;189;919398;-70
2022/11/03 10:54:08;;;;;;;7.73;4.43;;;;;;;;;;740989;189;817022;-69
2022/11/03 10:56:34;;;;;;;7.43;4.73;;;;;;;;;;737203;189;914188;-70
2022/11/03 10:59:00;;;;;;;5.28;3.20;;;;;;;;;;739237;189;813697;-71
2022/11/03 11:01:26;;;;;;;5.93;3.53;;;;;;;;;;742635;189;812965;-69
2022/11/03 11:03:52;;;;;;;12.10;6.03;;;;;;;;;;737239;189;814075;-69
2022/11/03 11:06:20;;;;;;;10.80;5.60;;;;;;;;;;734204;189;922012;-69
2022/11/03 11:08:46;;;;;;;9.20;5.30;;;;;;;;;;735361;189;883499;-70
2022/11/03 11:11:14;;;;;;;12.27;5.57;;;;;;;;;;741204;189;878993;-69
2022/11/03 11:13:40;;;;;;;7.33;5.03;;;;;;;;;;736410;189;864913;-68
2022/11/03 11:16:07;;;;;;;8.43;4.87;;;;;;;;;;739242;188;906893;-69
2022/11/03 11:18:48;;;;;;;9.73;4.83;;;;;;;;;;739105;189;919420;-70
2022/11/03 11:21:29;;;;;;;7.00;4.53;;;;;;;;;;744598;187;909025;-68
2022/11/03 11:23:55;;;;;;;9.17;5.00;;;;;;;;;;733917;188;916049;-68
2022/11/03 11:26:36;;;;;;;14.83;5.37;;;;;;;;;;728353;190;915586;-67
2022/11/03 11:29:19;;;;;;;5.20;3.67;;;;;;;;;;738913;187;915791;-68
2022/11/03 11:31:43;;;;;;;7.73;3.80;;;;;;;;;;741200;188;919637;-69
2022/11/03 11:34:24;;;;;;;6.30;4.07;;;;;;;;;;739861;188;921465;-69
2022/11/03 11:37:09;;;;;;;22.17;8.05;;;;;;;;;;737274;189;930310;-68
2022/11/03 11:39:43;;;;;;;6.43;3.70;;;;;;;;;;737710;188;919269;-69
2022/11/03 11:42:23;;;;;;;7.80;3.67;;;;;;;;;;740411;188;919405;-68
2022/11/03 11:44:50;;;;;;;6.47;3.70;;;;;;;;;;739741;188;918750;-68
2022/11/03 11:47:18;;;;;;;4.73;3.10;;;;;;;;;;740109;189;816710;-69
2022/11/03 11:49:43;;;;;;;4.70;3.03;;;;;;;;;;739505;189;897077;-68
2022/11/03 11:52:09;;;;;;;6.93;3.07;;;;;;;;;;736642;189;918520;-68
2022/11/03 11:54:35;;;;;;;7.63;3.30;;;;;;;;;;742230;189;917768;-68
2022/11/03 11:57:01;;;;;;;7.50;3.87;;;;;;;;;;734697;189;918917;-68
2022/11/03 11:59:27;;;;;;;7.27;4.20;;;;;;;;;;730078;189;919114;-68
2022/11/03 12:01:53;;;;;;;9.40;3.80;;;;;;;;;;735827;188;918465;-69
2022/11/03 12:04:19;;;;;;;6.10;3.40;;;;;;;;;;748252;184;918529;-69
2022/11/03 12:06:45;;;;;;;6.00;3.50;;;;;;;;;;739382;189;936913;-69
2022/11/03 12:09:15;;;;;;;7.43;3.90;;;;;;;;;;735302;189;919166;-69
2022/11/03 12:11:42;;;;;;;7.50;3.83;;;;;;;;;;739045;189;918869;-71
2022/11/03 12:14:13;;;;;;;5.43;3.60;;;;;;;;;;735805;189;919861;-69
2022/11/03 12:16:39;;;;;;;5.93;3.30;;;;;;;;;;735873;189;926847;-71
2022/11/03 12:19:11;;;;;;;10.17;3.70;;;;;;;;;;733043;189;919973;-70
2022/11/03 12:21:47;;;;;;;4.37;2.77;;;;;;;;;;739854;189;919369;-71
2022/11/03 12:24:19;;;;;;;4.50;2.70;;;;;;;;;;746076;188;919255;-70
2022/11/03 12:26:45;;;;;;;9.30;3.13;;;;;;;;;;738591;189;827718;-71
2022/11/03 12:29:12;;;;;;;6.47;3.10;;;;;;;;;;736500;189;916525;-69
2022/11/03 12:31:38;;;;;;;10.30;3.35;;;;;;;;;;739721;188;919843;-70
2022/11/03 12:34:03;;;;;;;10.77;4.27;;;;;;;;;;741597;188;927763;-70
2022/11/03 12:36:29;;;;;;;6.10;3.33;;;;;;;;;;738260;188;919069;-70
2022/11/03 12:38:57;;;;;;;4.87;3.60;;;;;;;;;;739774;188;909333;-69
2022/11/03 12:41:24;;;;;;;5.10;3.33;;;;;;;;;;744269;188;824647;-71
2022/11/03 12:43:50;;;;;;;5.50;3.07;;;;;;;;;;736594;189;918404;-70
2022/11/03 12:46:17;;;;;;;7.10;4.03;;;;;;;;;;739269;188;913882;-71
2022/11/03 12:48:43;;;;;;;6.30;3.93;;;;;;;;;;743226;188;911864;-71
2022/11/03 12:51:10;;;;;;;7.00;4.47;;;;;;;;;;736717;189;934826;-71
2022/11/03 12:53:36;;;;;;;6.60;4.57;;;;;;;;;;736971;189;917677;-70
2022/11/03 12:56:02;;;;;;;6.47;4.20;;;;;;;;;;736790;188;919256;-69
2022/11/03 12:58:28;;;;;;;8.00;3.90;;;;;;;;;;740589;189;917657;-70
2022/11/03 13:00:54;;;;;;;8.50;4.50;;;;;;;;;;736870;189;912405;-70
2022/11/03 13:03:19;;;;;;;6.03;4.40;;;;;;;;;;736013;189;918865;-70
2022/11/03 13:05:45;;;;;;;10.50;5.30;;;;;;;;;;743613;189;918860;-69
2022/11/03 13:08:11;;;;;;;5.37;3.13;;;;;;;;;;736400;189;912530;-70
2022/11/03 13:10:37;;;;;;;7.10;2.43;;;;;;;;;;736709;189;918988;-70
2022/11/03 13:13:03;;;;;;;8.93;2.63;;;;;;;;;;742673;189;855760;-69
2022/11/03 13:15:29;;;;;;;6.97;2.73;;;;;;;;;;736846;189;919359;-69
2022/11/03 13:17:55;;;;;;;4.77;2.70;;;;;;;;;;735903;189;918927;-70
2022/11/03 13:20:20;;;;;;;4.93;2.05;;;;;;;;;;735505;187;916198;-70
2022/11/03 13:22:46;;;;;;;8.17;2.27;;;;;;;;;;744790;186;880044;-70
2022/11/03 13:25:12;;;;;;;4.20;2.07;;;;;;;;;;740105;187;918670;-69
2022/11/03 13:27:42;;;;;;;4.45;2.40;;;;;;;;;;736878;190;903729;-70
2022/11/03 13:30:08;;;;;;;3.67;2.30;;;;;;;;;;742669;189;912186;-70
2022/11/03 13:32:34;;;;;;;5.07;1.90;;;;;;;;;;741755;188;818208;-71
2022/11/03 13:35:00;;;;;;;3.20;2.15;;;;;;;;;;737336;189;917662;-71
2022/11/03 13:37:26;;;;;;;4.85;3.00;;;;;;;;;;736980;189;878866;-68
2022/11/03 13:39:52;;;;;;;5.23;2.90;;;;;;;;;;741830;186;918680;-70
2022/11/03 13:42:18;;;;;;;7.87;2.60;;;;;;;;;;739392;188;919139;-70
2022/11/03 13:44:44;;;;;;;10.23;2.73;;;;;;;;;;739648;189;917302;-69
2022/11/03 13:47:10;;;;;;;318.87;183.00;;;;;;;;;;745644;189;919457;-69
2022/11/03 13:49:35;;;;;;;14.20;7.30;;;;;;;;;;734039;189;918106;-70
2022/11/03 13:52:01;;;;;;;13.30;4.30;;;;;;;;;;738546;188;918876;-70
2022/11/03 13:54:27;;;;;;;21.67;10.77;;;;;;;;;;743267;189;918962;-72
2022/11/03 13:56:53;;;;;;;16.10;8.17;;;;;;;;;;736108;189;920469;-71
2022/11/03 13:59:19;;;;;;;7.67;4.40;;;;;;;;;;739504;188;855765;-69
2022/11/03 14:01:46;;;;;;;43.33;18.87;;;;;;;;;;741995;189;855612;-71
2022/11/03 14:04:12;;;;;;;10.50;4.43;;;;;;;;;;735910;189;913636;-71
2022/11/03 14:06:38;;;;;;;5.50;3.03;;;;;;;;;;737396;190;916998;-69
2022/11/03 14:09:04;;;;;;;8.97;3.77;;;;;;;;;;737621;189;816371;-70
2022/11/03 14:14:02;;;;;;;7.90;4.05;;;;;;;;;;737081;189;861909;-70
2022/11/03 14:16:28;;;;;;;31.13;14.77;;;;;;;;;;735167;189;844287;-71
2022/11/03 14:18:54;;;;;;;19.08;9.23;;;;;;;;;;737349;189;917051;-69
2022/11/03 14:21:20;;;;;;;20.00;6.63;;;;;;;;;;741761;189;918352;-70
2022/11/03 14:23:46;;;;;;;35.93;15.20;;;;;;;;;;739037;188;920369;-70
2022/11/03 14:26:12;;;;;;;29.23;10.93;;;;;;;;;;736852;189;915371;-69
2022/11/03 14:28:38;;;;;;;18.43;7.80;;;;;;;;;;742709;188;916655;-70
2022/11/03 14:31:05;;;;;;;13.80;7.60;;;;;;;;;;737068;189;816225;-70